WetterOnline ( https://www.wetteronline.de )

Wetter aktuell Schönsee

Aktuelles Wetter: Waldmünchen (499m)

6-stündlich | Neueste Meldungen
Ortszeit Temperatur Wetter
Do, 27.01. 13:00 -2.5° C bedeckt
Do, 27.01. 7:00 -2.9° C bedeckt
Do, 27.01. 1:00 -2.0° C bedeckt
Mi, 26.01. 19:00 -1.9° C bedeckt
Mi, 26.01. 13:00 -1.1° C bedeckt
Mi, 26.01. 7:00 -2.1° C bedeckt
Mi, 26.01. 1:00 -1.2° C gefr. Sprühregen
Di, 25.01. 19:00 0.2° C bedeckt
Ortszeit Temperatur Wetter
Do, 27.01. 13:00 -2.5° C bedeckt
Do, 27.01. 12:50 -2.5° C bedeckt
Do, 27.01. 12:40 -2.5° C bedeckt
Do, 27.01. 12:30 -2.5° C bedeckt
Do, 27.01. 12:20 -2.5° C bedeckt
Do, 27.01. 12:10 -2.5° C bedeckt
Do, 27.01. 12:00 -2.4° C bedeckt
Do, 27.01. 11:30 -2.3° C bewölkt
Do, 27.01. 11:00 -2.3° C bedeckt
Do, 27.01. 10:30 -2.4° C bedeckt
Do, 27.01. 10:00 -2.5° C bedeckt
Ortszeit Relative Feuchte Sichtweite
Do, 27.01. 13:00 88% 15 km
Do, 27.01. 7:00 94% 7 km
Do, 27.01. 1:00 94% 16 km
Mi, 26.01. 19:00 95% 10 km
Mi, 26.01. 13:00 89% 18 km
Mi, 26.01. 7:00 94% 22 km
Mi, 26.01. 1:00 98% 3.7 km
Di, 25.01. 19:00 94% 8 km
Ortszeit Relative Feuchte Sichtweite
Do, 27.01. 13:00 88% 15 km
Do, 27.01. 12:50 88% -
Do, 27.01. 12:40 88% -
Do, 27.01. 12:30 87% 16 km
Do, 27.01. 12:20 87% -
Do, 27.01. 12:10 89% -
Do, 27.01. 12:00 89% 14 km
Do, 27.01. 11:30 89% 13 km
Do, 27.01. 11:00 90% 12 km
Do, 27.01. 10:30 92% 11 km
Do, 27.01. 10:00 91% 13 km
Ortszeit Niederschlagsmenge Niederschlagsart
Do, 27.01. 13:00 0.0 l/m2 in 6 Std. -
Do, 27.01. 7:00 0.1 l/m2 in 12 Std. -
Do, 27.01. 1:00 0.1 l/m2 in 6 Std. Schnee, Sprühregen
Mi, 26.01. 19:00 0.1 l/m2 in 12 Std. Sprühregen
Mi, 26.01. 13:00 0.0 l/m2 in 6 Std. -
Mi, 26.01. 7:00 0.1 l/m2 in 12 Std. Sprühregen
Mi, 26.01. 1:00 0.1 l/m2 in 6 Std. Sprühregen
Di, 25.01. 19:00 0.0 l/m2 in 12 Std. -
Ortszeit Niederschlagsmenge Niederschlagsart
Do, 27.01. 13:00 0.0 l/m2 in 1 Std. -
Do, 27.01. 12:50 keine Meldung -
Do, 27.01. 12:40 keine Meldung -
Do, 27.01. 12:30 0.0 l/m2 in 1 Std. -
Do, 27.01. 12:20 keine Meldung -
Do, 27.01. 12:10 keine Meldung -
Do, 27.01. 12:00 0.0 l/m2 in 1 Std. -
Do, 27.01. 11:30 0.0 l/m2 in 1 Std. -
Do, 27.01. 11:00 0.0 l/m2 in 1 Std. -
Do, 27.01. 10:30 0.0 l/m2 in 1 Std. -
Do, 27.01. 10:00 0.0 l/m2 in 1 Std. -
Ortszeit Stärke Spitze Richtung
km/h Bft. km/h Grad Sektor
Do, 27.01. 13:00 24 4 43 240° SW
Do, 27.01. 7:00 18 3 32 210° SW
Do, 27.01. 1:00 15 3 31 230° SW
Mi, 26.01. 19:00 20 4 31 230° SW
Mi, 26.01. 13:00 13 3 24 240° SW
Mi, 26.01. 7:00 11 2 22 260° W
Mi, 26.01. 1:00 11 2 19 220° SW
Di, 25.01. 19:00 7 2 15 220° SW
Ortszeit Stärke Spitze Richtung
km/h Bft. km/h Grad Sektor
Do, 27.01. 13:00 24 4 43 240° SW
Do, 27.01. 12:50 24 4 - 240° SW
Do, 27.01. 12:40 30 5 - 230° SW
Do, 27.01. 12:30 28 4 41 240° SW
Do, 27.01. 12:20 28 4 - 240° SW
Do, 27.01. 12:10 28 4 - 230° SW
Do, 27.01. 12:00 28 4 41 220° SW
Do, 27.01. 11:30 25 4 36 220° SW
Do, 27.01. 11:00 29 5 36 220° SW
Do, 27.01. 10:30 18 3 32 200° S
Do, 27.01. 10:00 20 4 37 210° SW
Ortszeit Untergrenze Bedeckung Gattung
total tief tief mittel hoch
Do, 27.01. 13:00 240 m 8/8 8/8 - - -
Do, 27.01. 7:00 150 m 8/8 8/8 - - -
Do, 27.01. 1:00 150 m 8/8 8/8 - - -
Mi, 26.01. 19:00 150 m 8/8 8/8 - - -
Mi, 26.01. 13:00 240 m 8/8 8/8 - - -
Mi, 26.01. 7:00 180 m 8/8 8/8 - - -
Mi, 26.01. 1:00 90 m 8/8 8/8 - - -
Di, 25.01. 19:00 180 m 8/8 8/8 - - -
Ortszeit Bedeckungsgrad in Achtel und Wolkenuntergrenze
Do, 27.01. 13:00 8(240m)
Do, 27.01. 12:50 8(240m)
Do, 27.01. 12:40 8
Do, 27.01. 12:30 8(240m)
Do, 27.01. 12:20 8(240m)
Do, 27.01. 12:10 8
Do, 27.01. 12:00 8(240m)
Do, 27.01. 11:30 7(240m)
Do, 27.01. 11:00 8(210m)
Do, 27.01. 10:30 8(180m)
Do, 27.01. 10:00 8(180m)
Ortszeit Luftdruck NN (hPa) Tendenz (hPa in 3 Std.)
Do, 27.01. 13:00 1028 - 0,6
Do, 27.01. 7:00 1029 - 1,0
Do, 27.01. 1:00 1031 - 0,3
Mi, 26.01. 19:00 1032 - 0,5
Mi, 26.01. 13:00 1032 - 0,5
Mi, 26.01. 7:00 1032 - 0,3
Mi, 26.01. 1:00 1033 - 0,6
Di, 25.01. 19:00 1033 + 0,2
Ortszeit Luftdruck NN (hPa) Tendenz (hPa in 3 Std.)
Do, 27.01. 13:00 1028 - 0,6
Do, 27.01. 12:50 1028 keine Meldung
Do, 27.01. 12:40 1028 keine Meldung
Do, 27.01. 12:30 1028 - 0,3
Do, 27.01. 12:20 1028 keine Meldung
Do, 27.01. 12:10 1028 keine Meldung
Do, 27.01. 12:00 1028 - 0,6
Do, 27.01. 11:30 1028 - 0,9
Do, 27.01. 11:00 1028 - 0,8
Do, 27.01. 10:30 1028 - 0,7
Do, 27.01. 10:00 1028 - 0,5
Ortszeit Schneehöhe (cm)
Do, 27.01. 13:00 1
Do, 27.01. 7:00 1
Do, 27.01. 1:00 1
Mi, 26.01. 19:00 1
Mi, 26.01. 13:00 1
Mi, 26.01. 7:00 1
Mi, 26.01. 1:00 1
Di, 25.01. 19:00 -
Ortszeit Schneehöhe (cm)
Do, 27.01. 13:00 1
Do, 27.01. 12:50 1
Do, 27.01. 12:40 1
Do, 27.01. 12:30 1
Do, 27.01. 12:20 1
Do, 27.01. 12:10 1
Do, 27.01. 12:00 1
Do, 27.01. 11:30 1
Do, 27.01. 11:00 1
Do, 27.01. 10:30 1
Do, 27.01. 10:00 1
Link zu dieser Seite / Seite empfehlen

Das Wetter in ...